METAR Data
IDs: Format: Raw Decoded Include TAF

Data at: 0819 UTC 03 Aug 2021

LIPR 030750Z 05004KT 010V100 CAVOK 25/11 Q1015